Patrick Schuster

Scout - VfB Stuttgart
10 Apr 2029
Dienstag
Verarbeitung

Persönlichkeit

Anpassungsfähigkeit (20) Ehrgeiz (9) Kontroverse (17) Loyalität (5) Druck (13) Professionalität (15) Fairness (16) Temperament (13)

Profil

Trainerstil Demokratisch
Lizenz Nationale A
Entschlossenheit 8
Menschenführung 15
Motivation 15
Disziplin 14
Arbeitszufriedenheit
100%
Ermüdung
0%
Rolle Scout
Gehalt 118.9K p/W
Vertrag 14.03.2030

Leistung

Verhalten Gut
Trainingseffektivität
56%
Spielerentwicklung
60%
Verletzungsprävention
45%
Taktische Umsetzung
75%

Aktuell beobachtet

73
Spieler Verein Status Fähigkeit Vertrauen Beobachtet Zuletzt beobachtet Letzte Stimme
Bernardo Lima Porto Aktiv 120 / 129 40% 2 31.01.2029 -
Tylel Tati Valenciennes Aktiv 135 / 135 40% 3 31.01.2029 -
Rafael Mota Sporting CP Aktiv 123 / 123 40% 1 31.01.2029 -
Anton Kade Heidenheim Verloren 142 / 143 70% 1 29.01.2029 -
Juho Kilo Köln Verloren 121 / 121 70% 1 29.01.2029 -
Lamine Bèye Alverca Aktiv 111 / 131 40% 2 23.01.2029 -
Honest Ahanor Udinese Aktiv 141 / 146 40% 1 23.01.2029 -
Lucas Jetten KV Oostende Verhandlung 120 / 125 40% 1 23.01.2029 -
Giovanni Cantizano Rosario Central Aktiv 116 / 115 40% 1 23.01.2029 -
Oumar Camara Vitoria Guimaraes Aktiv 144 / 148 40% 1 23.01.2029 -
Lennard Maloney Mainz 05 Verloren 140 / 140 70% 1 22.01.2029 -
Mio Zimmermann Luzern Aktiv 113 / 109 40% 1 18.01.2029 -
Trey Nyoni Liverpool Aktiv 143 / 159 40% 1 18.01.2029 -
Nejc Viher NK Maribor Aktiv 130 / 120 40% 1 16.01.2029 -
Jussef Nasrawe SV Ried Aktiv 115 / 113 40% 1 16.01.2029 -
Jorthy Mokio Ajax Aktiv 145 / 139 40% 2 12.01.2029 -
Jorge Salinas Racing Santander Aktiv 141 / 140 40% 2 12.01.2029 -
Marc Bernal Barcelona Aktiv 151 / 156 40% 1 12.01.2029 -
Marius Louër Stade Lavallois Aktiv 115 / 121 40% 3 10.01.2029 -
Joane Gadou Borussia Dortmund Aktiv 132 / 150 40% 1 10.01.2029 -
Jens Mathijsen Roda Aktiv 116 / 122 40% 1 10.01.2029 -
Miguel Figueiredo Benfica Aktiv 122 / 132 40% 1 09.01.2029 -
Matías Magdaleno Estudiantes Aktiv 118 / 127 40% 2 08.01.2029 -
Nikola Simić Partizan Aktiv 123 / 143 40% 1 08.01.2029 -
Raul Kumar Istra 1961 Aktiv 124 / 144 40% 1 06.01.2029 -
Matias Siltanen Kalmar FF Aktiv 135 / 129 40% 2 04.01.2029 -
Ayyoub Bouaddi West Bromwich Albion Aktiv 156 / 164 40% 1 04.01.2029 -
Luis Otávio Sporting Kansas City Aktiv 121 / 121 40% 2 01.01.2029 -
Konstantinos Karetsas Borussia Dortmund Aktiv 138 / 133 76% 1 01.01.2029 Befürworten
Jan Bürger Burton Albion Aktiv 120 / 120 40% 1 01.01.2029 -
Giovanni Cantizano Rosario Central Verloren 118 / 125 40% 1 01.01.2029 -
Lisandro Piñero Banfield Verloren 129 / 135 40% 1 01.01.2029 -
Jacob Peter Hödl Sturm Graz Aktiv 122 / 122 40% 3 18.07.2028 -
Alexander Røssing-Lelesiit St. Pauli Aktiv 119 / 134 40% 1 12.07.2028 -
Christian Kofane Bayer Leverkusen Aktiv 151 / 159 40% 1 12.07.2028 -
Jamal Jimoh-Aloba Northampton Town Aktiv 120 / 129 40% 1 12.07.2028 -
Aarón Ochoa Málaga Aktiv 127 / 131 40% 2 04.07.2028 -
Sidiki Chérif Coventry City Aktiv 144 / 133 40% 1 04.07.2028 -
Buba Sangaré Elche Aktiv 129 / 146 40% 1 04.07.2028 -
Mathis Jangeal Chaves Aktiv 104 / 116 40% 1 02.06.2028 -
Josh King Fulham Aktiv 137 / 147 40% 1 02.06.2028 -
Mao Hosoya Besiktas Aktiv 134 / 135 58% 1 01.06.2028 Befürworten
Moussa Diaby Al-Ittihad Aktiv 147 / 147 68% 1 01.06.2028 Befürworten
Luther Singh LA Galaxy Aktiv 131 / 131 66% 1 01.06.2028 Befürworten
Antonio Gomis Vizela Aktiv 140 / 131 40% 1 25.01.2028 -
Simon Simoni Luzern Aktiv 121 / 128 40% 1 25.01.2028 -
Raphael Posch Mattersburg Aktiv 113 / 125 40% 1 30.08.2027 -
Jens Hjertø-Dahl Hull City Aktiv 118 / 129 40% 1 30.08.2027 -
Ayden Heaven Manchester United Aktiv 153 / 151 40% 1 28.08.2027 -
Pau Cubarsí Barcelona Aktiv 168 / 165 40% 2 26.08.2027 -
Jorrel Hato Chelsea Aktiv 143 / 156 40% 1 26.08.2027 -
Yusuf Akçiçek Al-Hilal Aktiv 140 / 130 40% 4 22.08.2027 -
Mohamed Seck AS Roma Aktiv 101 / 113 40% 1 21.08.2027 -
Henrique Carmo CSKA Moscow Aktiv 142 / 143 40% 2 19.08.2027 -
Alessandro Romano AS Roma Aktiv 114 / 113 40% 1 19.08.2027 -
Ishé Samuels-Smith Chelsea Aktiv 119 / 119 40% 4 15.08.2027 -
Dani Díaz Real Sociedad Aktiv 114 / 127 40% 1 09.08.2027 -
Martim Cunha Porto Aktiv 110 / 111 40% 3 07.08.2027 -
Alexis Fretes Libertad Aktiv 120 / 107 40% 4 26.07.2027 -
Marquinhos Rubin Aktiv 128 / 128 68% 1 26.07.2027 Befürworten
Sanel Šaljić Austria Wien Aktiv 111 / 123 40% 2 24.07.2027 -
Antoñito Cordero Newcastle United Aktiv 113 / 126 40% 1 22.07.2027 -
Josh Nichols Arsenal Aktiv 105 / 121 40% 4 05.07.2027 -
Ulises Giménez River Plate Aktiv 100 / 129 40% 1 01.07.2027 -
Luca Raffin Rosario Central Aktiv 98 / 117 40% 1 01.07.2027 -
Juan Manuel Villalba Estudiantes Aktiv 104 / 130 40% 1 24.06.2027 -
Paulinho Barcelona Aktiv 140 / 140 66% 1 14.06.2027 Befürworten
Petik Manukyan Urartu Aktiv 116 / 116 40% 1 09.06.2027 -
Leon Grgić Red Bull Salzburg Aktiv 131 / 123 40% 1 04.06.2027 -
Lionel Messi Chelsea Aktiv 171 / 171 67% 1 01.06.2027 Befürworten
Johannes Eggestein VfB Stuttgart Aktiv 125 / 125 67% 1 01.06.2027 Befürworten
Joseph Paintsil Feyenoord Aktiv 130 / 130 67% 1 01.06.2027 Befürworten
Francis Amuzu Eintracht Frankfurt Aktiv 129 / 129 67% 1 01.06.2027 Befürworten